Time;durP1;ratioP1;P1;durP2;ratioP2;P2;SDS_P1;SDS_P2;PMS_P1;PMS_P2;Temp;Humidity;BMP_temperature;BMP_pressure;BME280_temperature;BME280_humidity;BME280_pressure;Samples;Min_cycle;Max_cycle;Signal;HPM_P1;HPM_P2
2022/03/13 00:00:26;;;;;;;1999.90;999.90;;;11.00;69.60;;;;;;4953696;28;20030;-90
2022/03/13 00:02:54;;;;;;;1999.90;999.90;;;10.90;69.60;;;;;;4971390;28;20031;-90
2022/03/13 00:05:20;;;;;;;1999.90;999.90;;;10.90;69.60;;;;;;4969627;28;20027;-91
2022/03/13 00:07:51;;;;;;;1999.90;999.90;;;10.90;69.70;;;;;;4972246;28;20030;-90
2022/03/13 00:10:18;;;;;;;;;;;10.90;69.50;;;;;;4989819;28;20042;-90
2022/03/13 00:12:46;;;;;;;1999.90;999.90;;;10.90;69.60;;;;;;4969263;28;19925;-90
2022/03/13 00:15:14;;;;;;;1999.90;999.90;;;10.90;69.70;;;;;;4970435;28;20026;-90
2022/03/13 00:17:41;;;;;;;1999.90;999.90;;;10.90;69.70;;;;;;4970906;28;20484;-90
2022/03/13 00:20:08;;;;;;;1999.90;999.90;;;10.90;69.60;;;;;;4970597;28;20026;-91
2022/03/13 00:22:34;;;;;;;1999.90;999.90;;;10.90;70.00;;;;;;4956644;28;20391;-91
2022/03/13 00:25:02;;;;;;;1999.90;999.90;;;10.90;70.00;;;;;;4953384;28;20031;-90
2022/03/13 00:27:31;;;;;;;1999.90;999.90;;;10.90;70.00;;;;;;4967911;28;20038;-91
2022/03/13 00:30:03;;;;;;;1999.90;999.90;;;11.00;70.00;;;;;;4972465;28;20511;-91
2022/03/13 00:32:29;;;;;;;1999.90;999.90;;;11.00;70.00;;;;;;4939899;28;20523;-91
2022/03/13 00:34:55;;;;;;;1999.90;999.90;;;11.00;70.10;;;;;;4973018;28;20031;-92
2022/03/13 00:37:21;;;;;;;1999.90;999.90;;;11.00;70.20;;;;;;4971020;28;20047;-93
2022/03/13 00:39:49;;;;;;;1999.90;999.90;;;10.90;70.30;;;;;;4971553;28;20054;-90
2022/03/13 00:42:15;;;;;;;1999.90;999.90;;;10.90;70.30;;;;;;4967983;28;20495;-90
2022/03/13 00:44:42;;;;;;;1999.90;999.90;;;11.00;70.40;;;;;;4943866;28;20388;-90
2022/03/13 00:47:08;;;;;;;1999.90;999.90;;;10.90;70.30;;;;;;4953953;28;20038;-91
2022/03/13 00:49:34;;;;;;;1999.90;999.90;;;11.00;70.40;;;;;;4956014;28;20039;-91
2022/03/13 00:52:01;;;;;;;1999.90;999.90;;;10.90;70.50;;;;;;4953183;28;20039;-90
2022/03/13 00:54:27;;;;;;;1999.90;999.90;;;10.90;70.60;;;;;;4970493;28;20030;-91
2022/03/13 00:56:54;;;;;;;1999.90;999.90;;;11.00;70.70;;;;;;4971792;28;20043;-89
2022/03/13 00:59:21;;;;;;;1999.90;999.90;;;10.90;70.70;;;;;;4969146;28;20035;-90
2022/03/13 01:01:48;;;;;;;1999.90;999.90;;;10.90;70.80;;;;;;4970682;28;20039;-90
2022/03/13 01:04:14;;;;;;;1999.90;999.90;;;11.00;70.80;;;;;;4953782;28;20058;-89
2022/03/13 01:06:43;;;;;;;1999.90;999.90;;;11.00;70.70;;;;;;4953314;28;20030;-91
2022/03/13 01:09:09;;;;;;;1999.90;999.90;;;11.00;70.50;;;;;;4967985;28;20053;-90
2022/03/13 01:11:35;;;;;;;1999.90;999.90;;;11.00;70.40;;;;;;4969401;28;20026;-88
2022/03/13 01:14:01;;;;;;;1999.90;999.90;;;11.10;70.60;;;;;;4954349;28;20395;-90
2022/03/13 01:16:30;;;;;;;1999.90;999.90;;;11.00;71.50;;;;;;4955700;28;20403;-90
2022/03/13 01:19:00;;;;;;;1999.90;999.90;;;11.00;70.90;;;;;;4969843;28;20045;-91
2022/03/13 01:21:27;;;;;;;1999.90;999.90;;;11.00;71.00;;;;;;4942860;28;20507;-90
2022/03/13 01:24:06;;;;;;;1999.90;999.90;;;11.00;71.00;;;;;;4952548;28;20484;-89
2022/03/13 01:26:36;;;;;;;1999.90;999.90;;;11.00;71.00;;;;;;4970356;28;20034;-90
2022/03/13 01:29:09;;;;;;;1999.90;999.90;;;11.00;70.90;;;;;;4971298;28;20042;-89
2022/03/13 01:31:36;;;;;;;1999.90;999.90;;;11.00;70.80;;;;;;4970068;28;20042;-89
2022/03/13 01:34:04;;;;;;;1999.90;999.90;;;11.10;70.80;;;;;;4971491;28;20500;-90
2022/03/13 01:36:30;;;;;;;1999.90;999.90;;;11.10;70.70;;;;;;4972676;28;20395;-90
2022/03/13 01:38:57;;;;;;;1999.90;999.90;;;11.10;70.60;;;;;;4974673;28;20055;-90
2022/03/13 01:41:24;;;;;;;1999.90;999.90;;;11.10;70.60;;;;;;4970283;28;20035;-90
2022/03/13 01:43:50;;;;;;;1999.90;999.90;;;11.10;70.60;;;;;;4956530;28;20035;-90
2022/03/13 01:46:16;;;;;;;1999.90;999.90;;;11.10;70.50;;;;;;4974511;28;20038;-90
2022/03/13 01:48:55;;;;;;;1999.90;999.90;;;11.20;70.50;;;;;;4957245;28;20396;-90
2022/03/13 01:51:22;;;;;;;1999.90;999.90;;;11.20;70.50;;;;;;4952113;28;20031;-90
2022/03/13 01:53:50;;;;;;;1999.90;999.90;;;11.20;70.50;;;;;;4956822;28;20034;-91
2022/03/13 01:56:16;;;;;;;1999.90;999.90;;;11.20;70.40;;;;;;4973509;28;20032;-91
2022/03/13 01:58:42;;;;;;;1999.90;999.90;;;11.20;70.40;;;;;;4975721;28;20042;-91
2022/03/13 02:01:08;;;;;;;1999.90;999.90;;;11.20;70.40;;;;;;4958543;28;20041;-89
2022/03/13 02:03:34;;;;;;;1999.90;999.90;;;11.30;70.40;;;;;;4972592;28;20035;-89
2022/03/13 02:06:01;;;;;;;1999.90;999.90;;;11.30;70.30;;;;;;4971864;28;20035;-89
2022/03/13 02:08:27;;;;;;;1999.90;999.90;;;11.30;70.20;;;;;;4956061;28;20027;-90
2022/03/13 02:10:53;;;;;;;1999.90;999.90;;;11.30;70.30;;;;;;4973934;28;20035;-89
2022/03/13 02:13:19;;;;;;;1999.90;999.90;;;11.30;70.20;;;;;;4974578;28;20041;-89
2022/03/13 02:15:46;;;;;;;1999.90;999.90;;;11.30;70.20;;;;;;4972540;28;20035;-91
2022/03/13 02:18:12;;;;;;;1999.90;999.90;;;11.40;70.20;;;;;;4943581;28;20054;-90
2022/03/13 02:20:42;;;;;;;1999.90;999.90;;;11.30;70.20;;;;;;4958316;28;20035;-89
2022/03/13 02:23:21;;;;;;;1999.90;999.90;;;11.40;71.00;;;;;;4954672;28;20035;-90
2022/03/13 02:25:52;;;;;;;1999.90;999.90;;;11.40;70.30;;;;;;4961303;28;20322;-90
2022/03/13 02:28:19;;;;;;;1999.90;999.90;;;11.40;70.30;;;;;;4973276;28;20507;-89
2022/03/13 02:30:45;;;;;;;1999.90;999.90;;;11.40;70.20;;;;;;4971060;28;20035;-89
2022/03/13 02:33:11;;;;;;;1999.90;999.90;;;11.40;70.20;;;;;;4972026;28;20030;-90
2022/03/13 02:35:38;;;;;;;1999.90;999.90;;;11.40;70.20;;;;;;4971077;28;20041;-90
2022/03/13 02:38:04;;;;;;;1999.90;999.90;;;11.40;70.20;;;;;;4972566;28;20063;-90
2022/03/13 02:40:30;;;;;;;1999.90;999.90;;;11.40;70.20;;;;;;4974790;28;20031;-90
2022/03/13 02:42:57;;;;;;;1999.90;999.90;;;11.40;70.20;;;;;;4971773;28;20030;-91
2022/03/13 02:45:31;;;;;;;1999.90;999.90;;;11.40;70.20;;;;;;4954549;28;20392;-90
2022/03/13 02:47:59;;;;;;;1999.90;999.90;;;11.40;70.20;;;;;;4973314;28;20030;-91
2022/03/13 02:50:25;;;;;;;1999.90;999.90;;;11.40;70.20;;;;;;4956054;28;20043;-90
2022/03/13 02:52:51;;;;;;;1999.90;999.90;;;11.40;70.20;;;;;;4938810;28;20397;-90
2022/03/13 02:55:17;;;;;;;1999.90;999.90;;;11.40;70.20;;;;;;4974271;28;20035;-90
2022/03/13 02:57:44;;;;;;;1999.90;999.90;;;11.40;70.20;;;;;;4971598;28;20050;-90
2022/03/13 03:00:10;;;;;;;1999.90;999.90;;;11.40;70.20;;;;;;4970480;28;20042;-91
2022/03/13 03:02:36;;;;;;;1999.90;999.90;;;11.40;70.20;;;;;;4967479;28;20030;-91
2022/03/13 03:05:06;;;;;;;1999.90;999.90;;;11.40;70.20;;;;;;4952314;28;20046;-90
2022/03/13 03:07:34;;;;;;;1999.90;999.90;;;11.40;70.20;;;;;;4969697;28;20034;-90
2022/03/13 03:10:00;;;;;;;1999.90;999.90;;;11.40;70.20;;;;;;4967984;28;20054;-89
2022/03/13 03:12:27;;;;;;;1999.90;999.90;;;11.40;70.20;;;;;;4955988;28;20027;-90
2022/03/13 03:14:54;;;;;;;1999.90;999.90;;;11.40;70.20;;;;;;4970892;28;20041;-90
2022/03/13 03:17:20;;;;;;;1999.90;999.90;;;11.40;70.20;;;;;;4954713;28;20039;-90
2022/03/13 03:19:46;;;;;;;1999.90;999.90;;;11.40;70.20;;;;;;4956365;28;20049;-90
2022/03/13 03:22:13;;;;;;;1999.90;999.90;;;11.40;70.20;;;;;;4968907;28;20041;-89
2022/03/13 03:24:39;;;;;;;1999.90;999.90;;;11.40;70.10;;;;;;4936945;28;20047;-90
2022/03/13 03:27:06;;;;;;;1999.90;999.90;;;11.40;70.10;;;;;;4979595;28;20031;-90
2022/03/13 03:29:32;;;;;;;1999.90;999.90;;;11.50;70.20;;;;;;4969024;28;20035;-91
2022/03/13 03:31:58;;;;;;;1999.90;999.90;;;11.50;70.10;;;;;;4954141;28;20404;-90
2022/03/13 03:34:27;;;;;;;1999.90;999.90;;;11.50;70.10;;;;;;4970785;28;20054;-90
2022/03/13 03:36:55;;;;;;;1999.90;999.90;;;11.50;70.10;;;;;;4951624;28;20035;-90
2022/03/13 03:39:22;;;;;;;1999.90;999.90;;;11.50;70.10;;;;;;4969297;28;20043;-90
2022/03/13 03:41:49;;;;;;;1999.90;999.90;;;11.50;70.10;;;;;;4956133;28;20030;-90
2022/03/13 03:44:16;;;;;;;1999.90;999.90;;;11.50;70.20;;;;;;4971604;28;20404;-90
2022/03/13 03:46:42;;;;;;;1999.90;999.90;;;11.50;70.10;;;;;;4956709;28;20054;-89
2022/03/13 03:49:08;;;;;;;1999.90;999.90;;;11.50;70.10;;;;;;4954356;28;20037;-90
2022/03/13 03:51:35;;;;;;;1999.90;999.90;;;11.50;70.10;;;;;;4973692;28;20027;-90
2022/03/13 03:54:03;;;;;;;1999.90;999.90;;;11.50;70.10;;;;;;4971318;28;20053;-90
2022/03/13 03:56:29;;;;;;;1999.90;999.90;;;11.50;70.00;;;;;;4970633;28;20038;-83
2022/03/13 03:58:55;;;;;;;1999.90;999.90;;;11.50;70.10;;;;;;4955334;28;20384;-83
2022/03/13 04:01:22;;;;;;;1999.90;999.90;;;11.50;70.10;;;;;;4963880;28;20400;-84
2022/03/13 04:03:48;;;;;;;1999.90;999.90;;;11.50;70.10;;;;;;4941363;28;20053;-84
2022/03/13 04:06:15;;;;;;;1999.90;999.90;;;11.50;70.10;;;;;;4958567;28;20388;-85
2022/03/13 04:08:41;;;;;;;1999.90;999.90;;;11.50;70.20;;;;;;4954023;28;20029;-85
2022/03/13 04:11:08;;;;;;;1999.90;999.90;;;11.50;70.20;;;;;;4954018;28;20107;-85
2022/03/13 04:13:38;;;;;;;1999.90;999.90;;;11.50;70.20;;;;;;4956619;28;20030;-85
2022/03/13 04:16:08;;;;;;;1999.90;999.90;;;11.50;70.20;;;;;;4940522;28;20525;-85
2022/03/13 04:18:35;;;;;;;1999.90;999.90;;;11.50;70.20;;;;;;4954576;28;20049;-84
2022/03/13 04:21:04;;;;;;;1999.90;999.90;;;11.50;70.20;;;;;;4954166;28;20046;-85
2022/03/13 04:23:34;;;;;;;1999.90;999.90;;;11.50;70.20;;;;;;4970483;28;20400;-84
2022/03/13 04:26:00;;;;;;;1999.90;999.90;;;11.50;70.20;;;;;;4955892;28;20027;-83
2022/03/13 04:28:27;;;;;;;1999.90;999.90;;;11.50;70.20;;;;;;4970507;28;20032;-82
2022/03/13 04:30:53;;;;;;;1999.90;999.90;;;11.50;70.30;;;;;;4967794;28;20043;-85
2022/03/13 04:33:21;;;;;;;1999.90;999.90;;;11.50;71.10;;;;;;4940372;28;20039;-84
2022/03/13 04:35:47;;;;;;;1999.90;999.90;;;11.50;70.30;;;;;;4971836;28;20484;-86
2022/03/13 04:38:14;;;;;;;1999.90;999.90;;;11.50;70.30;;;;;;4972342;28;20053;-85
2022/03/13 04:40:40;;;;;;;1999.90;999.90;;;11.50;70.30;;;;;;4972003;28;20054;-85
2022/03/13 04:43:07;;;;;;;1999.90;999.90;;;11.50;70.30;;;;;;4971790;28;20034;-85
2022/03/13 04:45:34;;;;;;;1999.90;999.90;;;11.50;70.30;;;;;;4955646;28;20049;-85
2022/03/13 04:48:01;;;;;;;1999.90;999.90;;;11.50;70.50;;;;;;4955777;28;20047;-86
2022/03/13 04:50:27;;;;;;;1999.90;999.90;;;11.50;70.50;;;;;;4964839;28;20027;-85
2022/03/13 04:52:53;;;;;;;1999.90;999.90;;;11.50;70.60;;;;;;4955290;28;20039;-91
2022/03/13 04:55:19;;;;;;;1999.90;999.90;;;11.40;70.60;;;;;;4973537;28;20392;-92
2022/03/13 04:57:45;;;;;;;1999.90;999.90;;;11.40;70.70;;;;;;4956849;28;20039;-93
2022/03/13 05:00:12;;;;;;;1999.90;999.90;;;11.40;70.80;;;;;;4972219;28;20023;-89
2022/03/13 05:02:38;;;;;;;1999.90;999.90;;;11.30;70.80;;;;;;4939876;28;20031;-90
2022/03/13 05:05:05;;;;;;;1999.90;999.90;;;11.30;71.00;;;;;;4939340;28;20047;-90
2022/03/13 05:07:31;;;;;;;1999.90;999.90;;;11.30;71.00;;;;;;4931585;28;20057;-88
2022/03/13 05:09:57;;;;;;;1999.90;999.90;;;11.30;71.10;;;;;;4971374;28;20410;-91
2022/03/13 05:12:25;;;;;;;1999.90;999.90;;;11.30;71.10;;;;;;4969445;28;20042;-92
2022/03/13 05:14:51;;;;;;;1999.90;999.90;;;11.20;71.10;;;;;;4971875;28;20030;-90
2022/03/13 05:17:17;;;;;;;1999.90;999.90;;;11.20;71.20;;;;;;4954731;28;20037;-88
2022/03/13 05:19:44;;;;;;;1999.90;999.90;;;11.20;71.20;;;;;;4955302;28;20070;-89
2022/03/13 05:22:10;;;;;;;1999.90;999.90;;;11.20;71.20;;;;;;4939864;28;20039;-90
2022/03/13 05:24:37;;;;;;;1999.90;999.90;;;11.20;71.30;;;;;;4956092;28;20057;-91
2022/03/13 05:27:03;;;;;;;1999.90;999.90;;;11.20;71.30;;;;;;4955006;28;20054;-88
2022/03/13 05:29:29;;;;;;;1999.90;999.90;;;11.20;71.40;;;;;;4952975;28;20031;-89
2022/03/13 05:31:55;;;;;;;1999.90;999.90;;;11.20;71.50;;;;;;4970515;28;20035;-90
2022/03/13 05:34:21;;;;;;;1505.53;755.28;;;11.20;71.60;;;;;;4971494;28;20030;-87
2022/03/13 05:36:47;;;;;;;22.23;21.23;;;11.10;71.50;;;;;;4967961;28;20389;-88
2022/03/13 05:39:14;;;;;;;1505.65;755.38;;;11.20;71.60;;;;;;4971263;28;20050;-89
2022/03/13 05:41:40;;;;;;;22.60;21.50;;;11.10;71.60;;;;;;4971386;28;20037;-87
2022/03/13 05:44:09;;;;;;;22.25;21.25;;;11.10;71.60;;;;;;4972272;28;20030;-88
2022/03/13 05:46:35;;;;;;;1505.30;755.05;;;11.10;71.60;;;;;;4971955;28;20503;-89
2022/03/13 05:49:02;;;;;;;21.90;20.90;;;11.10;71.70;;;;;;4971023;28;20027;-90
2022/03/13 05:51:35;;;;;;;20.98;19.98;;;11.10;71.70;;;;;;4954948;28;20023;-88
2022/03/13 05:54:02;;;;;;;22.67;21.50;;;11.10;71.70;;;;;;4955763;28;20050;-88
2022/03/13 05:56:28;;;;;;;21.38;20.38;;;11.10;71.70;;;;;;4970992;28;20039;-87
2022/03/13 05:58:54;;;;;;;21.50;20.50;;;11.10;71.70;;;;;;4943073;28;20071;-88
2022/03/13 06:01:20;;;;;;;22.02;21.02;;;11.10;71.90;;;;;;4970649;28;20038;-88
2022/03/13 06:03:46;;;;;;;21.52;20.52;;;11.10;71.90;;;;;;4954792;28;20042;-86
2022/03/13 06:06:14;;;;;;;22.02;21.02;;;11.10;72.00;;;;;;4972932;28;20031;-92
2022/03/13 06:08:41;;;;;;;22.35;21.35;;;11.10;72.00;;;;;;4955847;28;20034;-89
2022/03/13 06:11:08;;;;;;;22.17;21.17;;;11.10;72.00;;;;;;4955483;28;20031;-91
2022/03/13 06:13:34;;;;;;;21.90;20.90;;;11.10;72.10;;;;;;4955826;28;20066;-88
2022/03/13 06:16:00;;;;;;;21.70;20.70;;;11.10;72.00;;;;;;4954828;28;20031;-89
2022/03/13 06:18:31;;;;;;;21.50;20.50;;;11.10;72.10;;;;;;4955156;28;20063;-89
2022/03/13 06:20:58;;;;;;;21.75;20.75;;;11.10;72.10;;;;;;4959293;28;20035;-88
2022/03/13 06:23:24;;;;;;;22.25;21.25;;;11.10;72.10;;;;;;4958442;28;20039;-91
2022/03/13 06:25:51;;;;;;;22.00;21.00;;;11.10;72.20;;;;;;4943442;28;20045;-90
2022/03/13 06:28:19;;;;;;;22.10;21.10;;;11.00;72.20;;;;;;4990274;28;20039;-90
2022/03/13 06:30:45;;;;;;;22.10;21.10;;;11.10;72.30;;;;;;4957969;28;20065;-89
2022/03/13 06:33:11;;;;;;;22.02;21.02;;;11.00;72.30;;;;;;4958372;28;20038;-90
2022/03/13 06:35:37;;;;;;;21.63;20.63;;;11.00;72.30;;;;;;4975535;28;20035;-90
2022/03/13 06:38:03;;;;;;;22.33;21.33;;;11.00;72.30;;;;;;4941600;28;20053;-89
2022/03/13 06:40:30;;;;;;;21.52;20.52;;;11.10;72.40;;;;;;4959336;28;20050;-90
2022/03/13 06:42:56;;;;;;;22.15;21.15;;;11.00;72.40;;;;;;4974271;28;20035;-91
2022/03/13 06:45:22;;;;;;;21.92;20.92;;;11.00;72.40;;;;;;4961047;28;20043;-89
2022/03/13 06:47:52;;;;;;;21.70;20.70;;;11.00;72.50;;;;;;4942544;28;20492;-92
2022/03/13 06:50:20;;;;;;;21.73;20.73;;;11.00;72.60;;;;;;4959037;28;20031;-89
2022/03/13 06:52:47;;;;;;;21.27;20.27;;;11.00;72.50;;;;;;4958551;28;20029;-90
2022/03/13 06:55:13;;;;;;;20.90;19.90;;;11.00;72.70;;;;;;4941669;28;20392;-91
2022/03/13 06:57:40;;;;;;;21.70;20.70;;;11.00;72.70;;;;;;4974419;28;20030;-92
2022/03/13 07:00:07;;;;;;;21.60;20.60;;;11.00;72.70;;;;;;4939590;28;20054;-89
2022/03/13 07:02:33;;;;;;;21.27;20.27;;;11.00;72.80;;;;;;4947034;28;20039;-91
2022/03/13 07:04:59;;;;;;;21.60;20.60;;;10.90;72.70;;;;;;4957899;28;20034;-88
2022/03/13 07:07:26;;;;;;;21.17;20.17;;;11.00;72.80;;;;;;4958863;28;20037;-90
2022/03/13 07:09:52;;;;;;;21.42;20.42;;;10.90;72.70;;;;;;4974231;28;20033;-89
2022/03/13 07:12:19;;;;;;;21.48;20.48;;;10.90;72.80;;;;;;4971561;28;20027;-89
2022/03/13 07:14:48;;;;;;;21.05;20.05;;;10.90;72.80;;;;;;4975048;28;20407;-84
2022/03/13 07:17:15;;;;;;;21.17;20.17;;;10.90;72.90;;;;;;4973349;28;20046;-85
2022/03/13 07:19:43;;;;;;;21.42;20.42;;;10.90;72.90;;;;;;4969250;28;20491;-85
2022/03/13 07:22:12;;;;;;;21.20;20.20;;;10.90;72.90;;;;;;4973637;28;20030;-85
2022/03/13 07:24:39;;;;;;;21.55;20.55;;;10.90;73.00;;;;;;4953902;28;20039;-87
2022/03/13 07:27:05;;;;;;;21.00;20.00;;;10.90;73.00;;;;;;4970684;28;20404;-88
2022/03/13 07:29:32;;;;;;;22.52;21.33;;;10.90;73.00;;;;;;4970021;28;20042;-86
2022/03/13 07:31:58;;;;;;;20.95;19.95;;;10.90;73.00;;;;;;4955126;28;20031;-85
2022/03/13 07:34:24;;;;;;;21.30;20.30;;;10.80;73.00;;;;;;4971477;28;20042;-88
2022/03/13 07:36:53;;;;;;;21.00;20.00;;;10.90;73.10;;;;;;4954242;28;20043;-91
2022/03/13 07:39:21;;;;;;;20.20;19.30;;;10.90;73.10;;;;;;4973196;28;20043;-93
2022/03/13 07:41:49;;;;;;;21.38;20.38;;;10.80;73.00;;;;;;4970704;28;20047;-87
2022/03/13 07:44:15;;;;;;;20.70;19.77;;;10.80;73.10;;;;;;4954910;28;20038;-88
2022/03/13 07:46:41;;;;;;;21.17;20.17;;;10.90;73.20;;;;;;4946777;28;20046;-86
2022/03/13 07:49:07;;;;;;;20.65;19.75;;;10.90;73.10;;;;;;4966113;28;20035;-92
2022/03/13 07:51:34;;;;;;;20.20;19.30;;;10.90;73.10;;;;;;4956537;28;20019;-91
2022/03/13 07:54:03;;;;;;;21.13;20.02;;;10.90;73.10;;;;;;4965034;28;20039;-91
2022/03/13 07:56:29;;;;;;;21.08;20.08;;;10.90;73.10;;;;;;4943322;28;20038;-91
2022/03/13 07:58:56;;;;;;;20.20;19.30;;;11.00;73.20;;;;;;4972049;28;20065;-90
2022/03/13 08:01:22;;;;;;;20.80;19.83;;;11.00;73.20;;;;;;4954344;28;20488;-84
2022/03/13 08:03:51;;;;;;;21.38;20.38;;;11.00;73.10;;;;;;4970890;28;20030;-84
2022/03/13 08:06:17;;;;;;;21.17;20.17;;;11.00;73.10;;;;;;4970996;28;20027;-87
2022/03/13 08:08:43;;;;;;;21.17;20.17;;;11.00;73.10;;;;;;4956371;28;20050;-88
2022/03/13 08:11:09;;;;;;;20.35;19.45;;;11.00;73.10;;;;;;4971729;28;20495;-88
2022/03/13 08:13:35;;;;;;;20.25;19.35;;;11.10;73.20;;;;;;4955834;28;20400;-86
2022/03/13 08:16:01;;;;;;;20.98;19.98;;;11.10;73.20;;;;;;4971191;28;20051;-83
2022/03/13 08:18:29;;;;;;;21.20;20.20;;;11.10;73.20;;;;;;4970661;28;20034;-84
2022/03/13 08:20:56;;;;;;;20.40;19.50;;;11.10;73.20;;;;;;4969683;28;20038;-85
2022/03/13 08:23:22;;;;;;;21.60;20.60;;;11.10;73.20;;;;;;4969790;28;20046;-85
2022/03/13 08:25:48;;;;;;;20.77;19.77;;;11.10;73.20;;;;;;4972057;28;20042;-89
2022/03/13 08:28:14;;;;;;;21.10;20.10;;;11.10;73.20;;;;;;4970976;28;20049;-87
2022/03/13 08:30:40;;;;;;;21.85;20.85;;;11.10;73.30;;;;;;4956769;28;20058;-89
2022/03/13 08:33:07;;;;;;;21.42;20.42;;;11.10;73.30;;;;;;4953316;28;20042;-86
2022/03/13 08:35:34;;;;;;;21.52;20.52;;;11.10;73.30;;;;;;4970730;28;20050;-91
2022/03/13 08:38:00;;;;;;;20.70;19.75;;;11.10;73.30;;;;;;4933903;28;20378;-87
2022/03/13 08:40:26;;;;;;;21.75;20.75;;;11.10;73.30;;;;;;4955884;28;20062;-88
2022/03/13 08:42:53;;;;;;;21.35;20.35;;;11.20;73.40;;;;;;4965364;28;20034;-82
2022/03/13 08:45:19;;;;;;;21.70;20.70;;;11.10;73.40;;;;;;4966390;28;20045;-86
2022/03/13 08:47:47;;;;;;;20.48;19.58;;;11.20;73.50;;;;;;4954581;28;20031;-86
2022/03/13 08:50:14;;;;;;;21.38;20.38;;;11.10;73.40;;;;;;4934678;28;20053;-86
2022/03/13 08:52:40;;;;;;;21.48;20.48;;;11.10;73.40;;;;;;4956576;28;20023;-87
2022/03/13 08:55:08;;;;;;;21.88;20.73;;;11.20;73.40;;;;;;4952873;28;20045;-87
2022/03/13 08:57:36;;;;;;;21.42;20.42;;;11.10;73.50;;;;;;4969516;28;20043;-85
2022/03/13 09:00:02;;;;;;;21.65;20.65;;;11.10;73.50;;;;;;4968905;28;20046;-84
2022/03/13 09:02:29;;;;;;;21.83;20.83;;;11.10;73.50;;;;;;4967987;28;20039;-83
2022/03/13 09:04:55;;;;;;;21.48;20.48;;;11.10;73.50;;;;;;4966248;28;20049;-83
2022/03/13 09:07:21;;;;;;;21.17;20.17;;;11.10;73.50;;;;;;4933030;28;20039;-83
2022/03/13 09:09:47;;;;;;;21.65;20.65;;;11.10;73.50;;;;;;4965471;28;20042;-83
2022/03/13 09:12:13;;;;;;;21.50;20.50;;;11.20;73.60;;;;;;4945748;28;20030;-83
2022/03/13 09:14:39;;;;;;;22.00;21.00;;;11.10;73.60;;;;;;4950427;28;20046;-83
2022/03/13 09:17:05;;;;;;;21.33;20.33;;;11.10;73.70;;;;;;4969871;28;20043;-84
2022/03/13 09:19:32;;;;;;;20.90;19.92;;;11.20;73.70;;;;;;4955483;28;20047;-88
2022/03/13 09:21:58;;;;;;;21.33;20.33;;;11.10;73.70;;;;;;4954275;28;20039;-88
2022/03/13 09:24:24;;;;;;;21.08;20.08;;;11.20;73.70;;;;;;4939068;28;20039;-87
2022/03/13 09:26:50;;;;;;;21.27;20.27;;;11.20;73.70;;;;;;4953833;28;20484;-86
2022/03/13 09:29:16;;;;;;;21.40;20.40;;;11.20;73.60;;;;;;4968200;28;20030;-86
2022/03/13 09:31:42;;;;;;;21.48;20.48;;;11.20;73.60;;;;;;4954516;28;20404;-89
2022/03/13 09:34:08;;;;;;;21.58;20.58;;;11.30;73.60;;;;;;4969958;28;20026;-84
2022/03/13 09:36:36;;;;;;;21.77;20.77;;;11.30;73.60;;;;;;4967920;28;20042;-83
2022/03/13 09:39:06;;;;;;;20.42;19.50;;;11.30;73.60;;;;;;4968893;28;20054;-84
2022/03/13 09:41:32;;;;;;;21.35;20.35;;;11.30;73.50;;;;;;4968319;28;20027;-83
2022/03/13 09:43:58;;;;;;;21.50;20.50;;;11.40;73.50;;;;;;4971812;28;20042;-84
2022/03/13 09:46:24;;;;;;;20.92;19.92;;;11.40;73.50;;;;;;4968952;28;20484;-85
2022/03/13 09:48:54;;;;;;;21.15;20.15;;;11.50;73.50;;;;;;4969738;28;20049;-84
2022/03/13 09:51:20;;;;;;;21.58;20.58;;;11.50;73.40;;;;;;4967896;28;20049;-84
2022/03/13 09:53:46;;;;;;;20.75;19.75;;;11.50;73.40;;;;;;4970820;28;20043;-83
2022/03/13 09:56:12;;;;;;;21.52;20.52;;;11.50;73.40;;;;;;4972294;28;20047;-83
2022/03/13 09:58:40;;;;;;;21.40;20.40;;;11.50;73.40;;;;;;4959060;28;20366;-83
2022/03/13 10:01:07;;;;;;;21.77;20.77;;;11.50;73.50;;;;;;4956895;28;20407;-82
2022/03/13 10:03:33;;;;;;;21.27;20.27;;;11.50;73.60;;;;;;4971929;28;20025;-85
2022/03/13 10:05:59;;;;;;;21.02;20.02;;;11.50;73.60;;;;;;4973484;28;20392;-86
2022/03/13 10:08:28;;;;;;;21.30;20.30;;;11.40;73.60;;;;;;4940895;28;20404;-85
2022/03/13 10:10:54;;;;;;;21.10;20.10;;;11.40;73.70;;;;;;4951145;28;20032;-85
2022/03/13 10:13:35;;;;;;;20.52;19.63;;;11.40;73.80;;;;;;4974514;28;20384;-89
2022/03/13 10:16:02;;;;;;;20.15;19.25;;;11.40;73.90;;;;;;4972113;28;20046;-83
2022/03/13 10:18:28;;;;;;;20.77;19.83;;;11.30;73.90;;;;;;4954215;28;20018;-84
2022/03/13 10:20:55;;;;;;;21.77;20.77;;;11.30;73.90;;;;;;4973007;28;20049;-83
2022/03/13 10:23:22;;;;;;;22.05;21.05;;;11.30;74.10;;;;;;4972180;28;20468;-85
2022/03/13 10:25:50;;;;;;;21.80;20.80;;;11.30;74.10;;;;;;4972254;28;20046;-87
2022/03/13 10:28:20;;;;;;;22.33;21.33;;;11.40;74.00;;;;;;4968416;28;20034;-83
2022/03/13 10:30:58;;;;;;;20.65;19.73;;;11.50;74.00;;;;;;4970021;28;20424;-85
2022/03/13 10:33:48;;;;;;;22.20;21.20;;;11.60;73.90;;;;;;4986261;28;20078;-85
2022/03/13 10:36:31;;;;;;;21.58;20.58;;;11.60;73.90;;;;;;4966799;28;20047;-83
2022/03/13 10:38:57;;;;;;;22.30;21.20;;;11.80;73.80;;;;;;4965882;28;20046;-83
2022/03/13 10:41:44;;;;;;;22.17;21.17;;;11.90;73.50;;;;;;4972850;28;20511;-83
2022/03/13 10:44:34;;;;;;;22.05;21.05;;;12.00;73.60;;;;;;4943631;28;20031;-83
2022/03/13 10:47:05;;;;;;;681.93;347.87;;;12.10;73.40;;;;;;4955852;28;20045;-84
2022/03/13 10:49:41;;;;;;;517.22;266.40;;;12.20;73.40;;;;;;4958837;28;20039;-85
2022/03/13 10:52:29;;;;;;;22.25;21.25;;;12.30;73.40;;;;;;4972292;28;20035;-85
2022/03/13 10:54:56;;;;;;;22.42;21.42;;;12.40;73.40;;;;;;4970042;28;20031;-85
2022/03/13 10:57:22;;;;;;;23.20;22.10;;;12.50;73.40;;;;;;4941165;28;20039;-85
2022/03/13 11:00:07;;;;;;;22.85;21.75;;;12.50;73.30;;;;;;4957236;28;20508;-88
2022/03/13 11:02:33;;;;;;;23.73;22.63;;;12.70;73.30;;;;;;4954621;28;20401;-85
2022/03/13 11:05:00;;;;;;;1505.72;755.45;;;12.80;73.30;;;;;;4971567;28;20039;-86
2022/03/13 11:07:27;;;;;;;1505.75;755.47;;;12.90;73.10;;;;;;4957322;28;20045;-90
2022/03/13 11:09:54;;;;;;;23.40;22.30;;;12.90;73.90;;;;;;4970286;28;20031;-87
2022/03/13 11:12:20;;;;;;;1999.90;999.90;;;13.00;73.20;;;;;;4971473;28;20490;-89
2022/03/13 11:14:49;;;;;;;1505.70;755.42;;;13.00;73.20;;;;;;4970533;28;20035;-88
2022/03/13 11:17:22;;;;;;;1999.90;999.90;;;13.00;73.20;;;;;;4969541;28;20031;-89
2022/03/13 11:19:52;;;;;;;1999.90;999.90;;;13.10;73.30;;;;;;4956990;28;20199;-92
2022/03/13 11:22:21;;;;;;;1999.90;999.90;;;13.10;73.30;;;;;;4955278;28;20035;-93
2022/03/13 11:24:49;;;;;;;1999.90;999.90;;;13.10;73.30;;;;;;4957409;28;20026;-92
2022/03/13 11:27:15;;;;;;;1999.90;999.90;;;13.00;73.40;;;;;;4938981;28;20041;-91
2022/03/13 11:29:52;;;;;;;1999.90;999.90;;;13.00;73.50;;;;;;4972359;28;20030;-90
2022/03/13 11:32:30;;;;;;;1999.90;999.90;;;12.90;73.60;;;;;;4969986;28;20035;-91
2022/03/13 11:35:14;;;;;;;1999.90;999.90;;;12.90;74.40;;;;;;4974065;28;20039;-92
2022/03/13 11:37:41;;;;;;;1999.90;999.90;;;12.80;73.80;;;;;;4974044;28;20487;-91
2022/03/13 11:40:09;;;;;;;1999.90;999.90;;;12.70;73.70;;;;;;4971803;28;20054;-92
2022/03/13 11:42:48;;;;;;;1999.90;999.90;;;12.70;73.70;;;;;;4954109;28;20091;-90
2022/03/13 11:45:29;;;;;;;1999.90;999.90;;;12.70;73.70;;;;;;4971917;28;20031;-90
2022/03/13 11:47:56;;;;;;;1999.90;999.90;;;12.80;73.70;;;;;;4971686;28;20030;-91
2022/03/13 11:51:14;;;;;;;1999.90;999.90;;;12.80;73.50;;;;;;4971012;28;20027;-90
2022/03/13 11:53:40;;;;;;;1999.90;999.90;;;12.80;73.40;;;;;;4942701;28;20480;-90
2022/03/13 11:56:09;;;;;;;1999.90;999.90;;;12.90;73.30;;;;;;4952904;28;20063;-89
2022/03/13 11:58:38;;;;;;;1999.90;999.90;;;12.90;73.10;;;;;;4937414;29;20066;-89
2022/03/13 12:01:30;;;;;;;1999.90;999.90;;;13.00;73.00;;;;;;4950276;28;20516;-90
2022/03/13 12:04:09;;;;;;;1999.90;999.90;;;13.00;72.90;;;;;;4937501;29;20484;-88
2022/03/13 12:06:52;;;;;;;1999.90;999.90;;;13.00;72.90;;;;;;4947934;29;20035;-89
2022/03/13 12:09:20;;;;;;;1999.90;999.90;;;13.10;72.80;;;;;;4931695;29;20489;-89
2022/03/13 12:11:58;;;;;;;1999.90;999.90;;;13.10;72.70;;;;;;4944428;28;20083;-89
2022/03/13 12:15:02;;;;;;;1999.90;999.90;;;13.20;72.60;;;;;;4950921;29;20034;-90